KRPD

Rice Lake Regional - Carl's Field Airport

Rice Lake, Wisconsin, USA
METAR KRPD 181615Z AUTO 19013KT 10SM CLR 10/M01 A3031 RMK AO2 T00971013
Observed Flight Rules
Oct-18 @ 16:15 UTC (19 minutes ago) Visual Flight Rules
Wind Visibility Clouds
190° at 13 knots 10 miles
  • Clear skies
Temperatures Readings
Current 10°C / 50°F
Dewpoint -1°C / 30°F
Humidity 47%
Altimeter 30.31" Hg
Pressure 1026 hPa
Elevation 338
METAR KRPD 181615Z AUTO 19013KT 10SM CLR 10/M01 A3031 RMK AO2 T00971013
Observed Flight Rules
Oct-18 @ 16:15 UTC
(19 minutes ago)
VFR
Wind Visibility
190° at 13 knots 10 miles
Clouds
  • Clear skies
Temperature Dewpoint
10°C / 50°F -1°C / 30°F
Humidity Altimeter Pressure
47% 30.31" Hg 1026 hPa